map of NLV home
Great Circle Mapper logo
NLV - Airport
Location
City:  Nikolaev, Ukraine
ICAO / IATA:UKON / NLV

Details
Type:Airport (Aerodrome, Airfield)
Use:Public/Civil, International (customs port of entry)
Latitude:4703'28"N (47.057900)
Longitude:3155'11"E (31.919825)
Datum:WGS 1984
Elevation:184 ft (56 m)
Runways:2
Longest:8438 × 144 ft (2572 × 44 m), paved

Time
Time Zone:UTC+2 (DST+3)
Local Time:

Weather
METAR:UKON 260800Z 07009MPS CAVOK 01/M08 Q1034 NOSIG

Related Locations
Nearby:
Farthest:CHT: 11050 mi / 17783 km
Waitangi [Tuuta], Chatham Islands, NZ

Find:

   beyond  
but within

Other Information
Maps:
NOTAMs:
Links:
Sources:

  
flag of Ukraine   

Sectional Chart

Flight Planning
at skyvector.com

Satellite Image

Google Maps Satellite View

 

Copyright © 2004-2014 Karl L. Swartz. All rights reserved.
The Great Circle Mapper name and logo are trademarks of the Great Circle Mapper.
All other trademarks mentioned herein belong to their respective owners.
Please see credits for attibutions and further copyright information.

  Follow gcmap on Facebook Follow gcmap on Twitter

hCard Microformat

Geo Microformat